Terminal Aerodrome Forecast
Issued by NWS Charleston, WV

Current Version | Previous Version | Graphics & Text | Print | Product List | Glossary On
Versions: 1 2 3 4 5 6 7 8 9 10 11 12 13 14 15 16 17 18 19 20 21 22 23
336
FTUS41 KRLX 251132
TAFEKN
TAF
KEKN 251132Z 2512/2612 32005KT P6SM SCT030
      TEMPO 2512/2514 BKN030
     FM251500 32004KT P6SM SCT040
     FM260500 00000KT 2SM BR SCT001
     FM260600 00000KT 1/4SM FG VV001=

USA.gov is the U.S. government's official web portal to all federal, state and local government web resources and services.